Qaanaaq

KL  EN  DA
ASIAQ
Weather Now GREENLAND SURVEY
Updated [WGT/WGST] Temperature [°C] Wind [m/s] Air pressure [hPa] Relative humidity [%] Precipitation [mm]
Present Wind chill Speed Max
27.09 03:00-3,60,00,5 ⇓0,91023440,0
27.09 02:00-3,70,00,7 ⇙0,91023440,0
27.09 01:00-4,20,00,2 ⇗0,91023460,0
27.09 00:00-3,30,00,8 ⇓1,21023450,0
26.09 23:00-3,60,00,6 ⇙0,91023480,0
26.09 22:00-3,70,00,9 ⇓1,21023490,0
26.09 21:00-4,10,01,0 ⇖1,41023480,0
26.09 20:00-3,90,01,1 ⇘1,71023530,0
26.09 19:00-3,30,01,2 ⇓1,41023480,0
26.09 18:00-2,80,00,0 ⇓0,51023490,0
26.09 17:00-3,00,01,2 ⇒1,61023480,0
26.09 16:00-2,30,00,8 ⇗1,21023490,0
26.09 15:00-2,20,00,3 ⇒0,81024430,0
26.09 14:00-1,60,00,1 ⇗0,61024400,0
26.09 13:00-2,8-5,21,6 ⇖2,01024450,0
26.09 12:00-3,00,01,2 ⇖2,11024480,0
26.09 11:00-4,30,00,8 ⇓1,21024500,0
26.09 10:00-4,20,00,2 ⇓0,61024450,0
26.09 09:00-4,70,00,9 ⇐1,21024520,0
26.09 08:00-4,80,0n/an/an/a480,0
26.09 07:00-5,3-8,01,6 ⇓2,11024530,0
26.09 06:00-5,30,01,3 ⇓2,31024630,0
26.09 05:00-5,7-9,42,2 ⇙2,61024540,0
26.09 04:00-4,50,00,7 ⇙1,71024480,0
26.09 03:00-4,40,00,8 ⇘1,31024490,0
Position: (77.48527778,-69.3744444444)

[Back]